createdAt,value
2024-01-24T00:01:46.760Z,1.60
2024-01-24T00:03:49.936Z,3.33
2024-01-24T00:05:52.829Z,2.53
2024-01-24T00:07:55.607Z,6.50
2024-01-24T00:09:58.364Z,4.17
2024-01-24T00:12:01.152Z,2.50
2024-01-24T00:14:03.000Z,2.83
2024-01-24T00:16:06.290Z,3.03
2024-01-24T00:18:08.242Z,2.70
2024-01-24T00:20:14.131Z,4.40
2024-01-24T00:22:17.066Z,3.43
2024-01-24T00:24:18.964Z,2.37
2024-01-24T00:26:21.833Z,4.90
2024-01-24T00:28:27.502Z,3.10
2024-01-24T00:30:30.300Z,2.30
2024-01-24T00:32:33.133Z,2.67
2024-01-24T00:34:35.059Z,2.03
2024-01-24T00:36:39.148Z,2.50
2024-01-24T00:38:41.914Z,3.67
2024-01-24T00:40:45.601Z,8.10
2024-01-24T00:42:48.377Z,5.00
2024-01-24T00:44:52.080Z,2.90
2024-01-24T00:46:54.835Z,3.47
2024-01-24T00:48:57.687Z,2.33
2024-01-24T00:51:00.475Z,7.60
2024-01-24T00:53:04.770Z,4.03
2024-01-24T00:55:08.059Z,3.67
2024-01-24T00:57:10.838Z,2.10
2024-01-24T00:59:12.637Z,1.80
2024-01-24T01:01:15.437Z,5.70
2024-01-24T01:03:18.313Z,2.40
2024-01-24T01:05:20.305Z,1.80
2024-01-24T01:07:23.103Z,1.57
2024-01-24T01:09:27.198Z,1.83
2024-01-24T01:11:29.965Z,3.80
2024-01-24T01:13:33.763Z,5.33
2024-01-24T01:15:36.550Z,1.90
2024-01-24T01:17:38.467Z,2.43
2024-01-24T01:19:41.523Z,2.30
2024-01-24T01:21:44.321Z,2.37
2024-01-24T01:23:47.116Z,3.43
2024-01-24T01:25:51.206Z,5.37
2024-01-24T01:27:53.951Z,2.17
2024-01-24T01:29:55.806Z,2.50
2024-01-24T01:31:58.566Z,6.57
2024-01-24T01:34:02.195Z,1.90
2024-01-24T01:36:14.280Z,3.10
2024-01-24T01:38:25.319Z,2.60
2024-01-24T01:40:28.621Z,1.83
2024-01-24T01:42:31.793Z,4.20
2024-01-24T01:44:35.151Z,2.23
2024-01-24T01:46:38.973Z,2.90
2024-01-24T01:48:40.840Z,4.97
2024-01-24T01:50:43.648Z,2.63
2024-01-24T01:52:46.482Z,5.80
2024-01-24T01:54:49.305Z,3.10
2024-01-24T01:56:52.116Z,2.90
2024-01-24T01:58:56.232Z,3.80
2024-01-24T02:00:59.090Z,5.03
2024-01-24T02:03:02.212Z,3.90
2024-01-24T02:05:05.798Z,11.40
2024-01-24T02:07:08.699Z,4.57
2024-01-24T02:09:12.767Z,3.60
2024-01-24T02:11:15.865Z,4.50
2024-01-24T02:13:18.621Z,3.20
2024-01-24T02:15:22.896Z,3.67
2024-01-24T02:17:25.676Z,5.13
2024-01-24T02:19:28.436Z,5.27
2024-01-24T02:21:30.274Z,2.70
2024-01-24T02:23:33.024Z,7.23
2024-01-24T02:25:37.133Z,8.10
2024-01-24T02:27:39.886Z,2.37
2024-01-24T02:29:42.657Z,3.30
2024-01-24T02:31:45.413Z,4.23
2024-01-24T02:33:47.401Z,3.90
2024-01-24T02:35:50.171Z,6.70
2024-01-24T02:37:52.891Z,3.67
2024-01-24T02:39:55.731Z,3.00
2024-01-24T02:41:59.821Z,5.13
2024-01-24T02:44:02.561Z,4.63
2024-01-24T02:46:06.017Z,5.60
2024-01-24T02:48:08.270Z,4.67
2024-01-24T02:50:14.963Z,5.53
2024-01-24T02:52:17.907Z,3.03
2024-01-24T02:54:19.713Z,3.23
2024-01-24T02:56:22.843Z,3.93
2024-01-24T02:58:26.980Z,3.90
2024-01-24T03:00:30.312Z,9.40
2024-01-24T03:02:32.412Z,5.77
2024-01-24T03:04:35.224Z,16.10
2024-01-24T03:06:37.201Z,2.60
2024-01-24T03:08:50.579Z,4.77
2024-01-24T03:10:53.471Z,5.30
2024-01-24T03:12:55.555Z,4.80
2024-01-24T03:14:59.726Z,3.70
2024-01-24T03:17:03.003Z,3.37
2024-01-24T03:19:07.260Z,2.20
2024-01-24T03:21:10.561Z,5.60
2024-01-24T03:23:13.748Z,3.40
2024-01-24T03:25:19.572Z,2.67
2024-01-24T03:27:22.812Z,5.00
2024-01-24T03:29:25.558Z,4.50
2024-01-24T03:31:29.834Z,4.40
2024-01-24T03:33:31.642Z,2.70
2024-01-24T03:35:34.426Z,4.03
2024-01-24T03:37:37.141Z,3.23
2024-01-24T03:39:41.490Z,3.20
2024-01-24T03:41:44.269Z,7.87
2024-01-24T03:43:47.095Z,4.13
2024-01-24T03:45:49.919Z,4.20
2024-01-24T03:47:54.034Z,3.33
2024-01-24T03:49:56.866Z,3.03
2024-01-24T03:51:59.808Z,10.07
2024-01-24T03:54:02.603Z,5.90
2024-01-24T03:56:06.034Z,5.60
2024-01-24T03:58:08.772Z,5.37
2024-01-24T04:00:12.640Z,4.77
2024-01-24T04:02:15.436Z,3.80
2024-01-24T04:04:18.670Z,2.77
2024-01-24T04:06:21.516Z,2.77
2024-01-24T04:08:24.337Z,10.00
2024-01-24T04:10:27.082Z,4.43
2024-01-24T04:12:29.851Z,5.97
2024-01-24T04:14:32.770Z,3.70
2024-01-24T04:16:36.578Z,4.63
2024-01-24T04:18:39.542Z,4.33
2024-01-24T04:20:43.708Z,2.30
2024-01-24T04:22:46.453Z,5.57
2024-01-24T04:24:48.245Z,5.17
2024-01-24T04:26:51.014Z,9.50
2024-01-24T04:28:52.772Z,3.50
2024-01-24T04:30:55.582Z,13.97
2024-01-24T04:32:58.561Z,3.30
2024-01-24T04:35:01.381Z,4.80
2024-01-24T04:37:05.662Z,4.27
2024-01-24T04:39:07.510Z,8.20
2024-01-24T04:41:10.646Z,7.77
2024-01-24T04:43:13.442Z,4.93
2024-01-24T04:45:17.158Z,4.97
2024-01-24T04:47:19.965Z,3.77
2024-01-24T04:49:31.130Z,4.90
2024-01-24T04:51:43.133Z,10.77
2024-01-24T04:53:47.223Z,13.47
2024-01-24T04:55:49.012Z,13.17
2024-01-24T04:57:52.001Z,11.37
2024-01-24T04:59:56.544Z,2.90
2024-01-24T05:01:59.934Z,11.40
2024-01-24T05:04:02.813Z,7.30
2024-01-24T05:06:10.589Z,9.83
2024-01-24T05:08:14.269Z,8.73
2024-01-24T05:10:17.476Z,10.27
2024-01-24T05:12:20.296Z,14.10
2024-01-24T05:14:23.064Z,4.90
2024-01-24T05:16:25.793Z,12.43
2024-01-24T05:18:28.730Z,6.50
2024-01-24T05:20:31.637Z,3.43
2024-01-24T05:22:34.390Z,2.17
2024-01-24T05:24:37.204Z,2.77
2024-01-24T05:26:41.399Z,2.40
2024-01-24T05:28:44.142Z,2.17
2024-01-24T05:30:46.908Z,3.03
2024-01-24T05:32:49.823Z,4.20
2024-01-24T05:34:52.671Z,2.30
2024-01-24T05:36:55.589Z,6.63
2024-01-24T05:38:58.405Z,6.47
2024-01-24T05:41:01.134Z,1.83
2024-01-24T05:43:05.750Z,2.33
2024-01-24T05:45:09.283Z,3.03
2024-01-24T05:47:12.061Z,3.60
2024-01-24T05:49:15.118Z,6.63
2024-01-24T05:51:18.140Z,6.27
2024-01-24T05:53:20.928Z,7.47
2024-01-24T05:55:23.733Z,9.80
2024-01-24T05:57:26.636Z,12.90
2024-01-24T05:59:30.759Z,19.47
2024-01-24T06:01:33.679Z,13.87
2024-01-24T06:03:36.648Z,10.00
2024-01-24T06:05:39.686Z,9.40
2024-01-24T06:07:42.977Z,14.77
2024-01-24T06:09:45.840Z,7.90
2024-01-24T06:11:49.838Z,11.73
2024-01-24T06:13:52.799Z,11.53
2024-01-24T06:15:57.190Z,12.77
2024-01-24T06:18:00.038Z,10.47
2024-01-24T06:20:02.826Z,15.07
2024-01-24T06:22:05.946Z,12.07
2024-01-24T06:24:09.038Z,8.70
2024-01-24T06:26:11.803Z,10.50
2024-01-24T06:28:15.120Z,10.27
2024-01-24T06:30:22.238Z,9.23
2024-01-24T06:32:28.047Z,14.77
2024-01-24T06:34:31.461Z,6.80
2024-01-24T06:36:34.781Z,11.10
2024-01-24T06:38:37.548Z,5.00
2024-01-24T06:40:40.319Z,11.50
2024-01-24T06:42:43.143Z,3.73
2024-01-24T06:44:45.819Z,12.87
2024-01-24T06:46:48.618Z,15.83
2024-01-24T06:48:52.775Z,10.60
2024-01-24T06:50:56.428Z,9.10
2024-01-24T06:52:59.797Z,14.53
2024-01-24T06:55:01.882Z,13.57
2024-01-24T06:57:05.388Z,11.10
2024-01-24T06:59:08.303Z,12.13
2024-01-24T07:01:11.549Z,13.97
2024-01-24T07:03:14.669Z,13.73
2024-01-24T07:05:18.982Z,10.67
2024-01-24T07:07:21.794Z,9.20
2024-01-24T07:09:24.625Z,18.93
2024-01-24T07:11:27.391Z,16.57
2024-01-24T07:13:30.158Z,33.10
2024-01-24T07:15:32.955Z,18.90
2024-01-24T07:17:35.755Z,16.80
2024-01-24T07:19:38.901Z,28.47
2024-01-24T07:21:43.104Z,31.93
2024-01-24T07:23:46.209Z,18.90
2024-01-24T07:25:48.991Z,33.85
2024-01-24T07:27:50.831Z,20.43
2024-01-24T07:29:53.612Z,39.53
2024-01-24T07:31:56.453Z,24.17
2024-01-24T07:33:59.226Z,19.30
2024-01-24T07:36:02.026Z,22.37
2024-01-24T07:38:07.177Z,19.40
2024-01-24T07:40:12.009Z,27.90
2024-01-24T07:42:14.722Z,30.07
2024-01-24T07:44:17.539Z,34.83
2024-01-24T07:46:20.570Z,35.60
2024-01-24T07:48:23.484Z,16.67
2024-01-24T07:50:28.417Z,31.63
2024-01-24T07:52:37.140Z,18.93
2024-01-24T07:54:45.813Z,26.53
2024-01-24T07:56:48.654Z,36.67
2024-01-24T07:58:53.097Z,44.57
2024-01-24T08:00:56.833Z,27.40
2024-01-24T08:03:00.265Z,39.07
2024-01-24T08:05:02.935Z,37.50
2024-01-24T08:07:06.642Z,23.23
2024-01-24T08:09:11.823Z,35.27
2024-01-24T08:11:17.791Z,30.17
2024-01-24T08:13:20.996Z,24.53
2024-01-24T08:15:24.005Z,35.03
2024-01-24T08:17:27.449Z,32.93
2024-01-24T08:19:29.594Z,33.07
2024-01-24T08:21:32.682Z,26.20
2024-01-24T08:23:42.826Z,32.03
2024-01-24T08:25:51.906Z,41.53
2024-01-24T08:27:56.230Z,32.07
2024-01-24T08:29:58.247Z,37.63
2024-01-24T08:32:01.254Z,30.67
2024-01-24T08:34:03.959Z,35.83
2024-01-24T08:36:07.018Z,23.43
2024-01-24T08:38:10.913Z,34.70
2024-01-24T08:40:14.012Z,31.40
2024-01-24T08:42:16.847Z,45.00
2024-01-24T08:44:20.011Z,32.87
2024-01-24T08:46:22.745Z,36.90
2024-01-24T08:48:26.198Z,42.30
2024-01-24T08:50:29.063Z,46.83
2024-01-24T08:52:32.902Z,18.30
2024-01-24T08:54:37.106Z,28.50
2024-01-24T08:56:40.267Z,35.13
2024-01-24T08:58:43.842Z,31.93
2024-01-24T09:00:48.219Z,19.20
2024-01-24T09:02:51.683Z,25.30
2024-01-24T09:04:54.990Z,37.73
2024-01-24T09:06:57.100Z,36.53
2024-01-24T09:08:59.898Z,28.47
2024-01-24T09:11:01.848Z,26.30
2024-01-24T09:13:05.170Z,29.90
2024-01-24T09:15:09.024Z,23.07
2024-01-24T09:17:13.489Z,33.53
2024-01-24T09:19:16.492Z,32.77
2024-01-24T09:21:19.446Z,37.50
2024-01-24T09:23:23.256Z,33.63
2024-01-24T09:25:26.174Z,30.20
2024-01-24T09:27:28.346Z,29.03
2024-01-24T09:29:31.097Z,26.67
2024-01-24T09:31:33.941Z,40.23
2024-01-24T09:33:39.945Z,36.47
2024-01-24T09:35:45.149Z,26.50
2024-01-24T09:37:48.054Z,28.63
2024-01-24T09:39:50.546Z,37.53
2024-01-24T09:41:54.459Z,23.77
2024-01-24T09:43:57.648Z,35.90
2024-01-24T09:46:00.494Z,41.17
2024-01-24T09:48:03.392Z,26.13
2024-01-24T09:50:09.109Z,26.23
2024-01-24T09:52:13.261Z,32.70
2024-01-24T09:54:15.137Z,28.13
2024-01-24T09:56:17.984Z,28.37
2024-01-24T09:58:21.074Z,28.73
2024-01-24T10:00:23.890Z,36.40
2024-01-24T10:02:26.715Z,23.63
2024-01-24T10:04:29.792Z,30.40
2024-01-24T10:06:33.183Z,34.23
2024-01-24T10:08:36.143Z,43.67
2024-01-24T10:10:38.881Z,27.13
2024-01-24T10:12:42.911Z,43.40
2024-01-24T10:14:44.708Z,43.80
2024-01-24T10:16:47.873Z,35.77
2024-01-24T10:18:50.014Z,30.30
2024-01-24T10:20:53.546Z,25.30
2024-01-24T10:22:57.775Z,47.70
2024-01-24T10:25:00.640Z,41.93
2024-01-24T10:27:03.559Z,31.33
2024-01-24T10:29:06.913Z,36.80
2024-01-24T10:31:10.014Z,26.27
2024-01-24T10:33:15.746Z,33.23
2024-01-24T10:35:19.534Z,12.27
2024-01-24T10:37:22.654Z,38.70
2024-01-24T10:39:26.894Z,31.40
2024-01-24T10:41:31.442Z,32.80
2024-01-24T10:43:33.352Z,35.50
2024-01-24T10:45:36.415Z,44.20
2024-01-24T10:47:39.206Z,14.60
2024-01-24T10:49:42.364Z,31.17
2024-01-24T10:51:45.743Z,35.40
2024-01-24T10:53:48.572Z,35.60
2024-01-24T10:55:52.797Z,36.90
2024-01-24T10:57:55.717Z,39.23
2024-01-24T10:59:58.606Z,49.90
2024-01-24T11:02:01.396Z,34.50
2024-01-24T11:04:07.674Z,30.37
2024-01-24T11:06:14.474Z,34.70
2024-01-24T11:08:21.377Z,30.20
2024-01-24T11:10:25.964Z,28.00
2024-01-24T11:12:29.375Z,28.60
2024-01-24T11:14:33.199Z,38.17
2024-01-24T11:16:38.464Z,30.93
2024-01-24T11:18:41.453Z,36.93
2024-01-24T11:20:46.816Z,26.47
2024-01-24T11:22:49.564Z,35.75
2024-01-24T11:24:53.650Z,35.33
2024-01-24T11:26:56.086Z,24.37
2024-01-24T11:29:08.976Z,32.17
2024-01-24T11:31:11.948Z,25.90
2024-01-24T11:33:18.226Z,31.57
2024-01-24T11:35:26.431Z,42.77
2024-01-24T11:37:34.515Z,24.07
2024-01-24T11:39:39.122Z,33.37
2024-01-24T11:41:42.379Z,18.27
2024-01-24T11:43:46.092Z,31.63
2024-01-24T11:45:52.567Z,40.10
2024-01-24T11:47:55.983Z,28.30
2024-01-24T11:49:58.021Z,34.07
2024-01-24T11:52:03.791Z,32.93
2024-01-24T11:54:06.925Z,42.73
2024-01-24T11:56:12.419Z,25.00
2024-01-24T11:58:14.209Z,48.13
2024-01-24T12:00:17.882Z,33.53
2024-01-24T12:02:21.990Z,41.87
2024-01-24T12:04:26.125Z,26.50
2024-01-24T12:06:32.704Z,35.70
2024-01-24T12:08:35.517Z,24.27
2024-01-24T12:10:39.488Z,34.77
2024-01-24T12:12:41.330Z,34.03
2024-01-24T12:14:44.389Z,39.40
2024-01-24T12:16:47.921Z,29.93
2024-01-24T12:18:52.953Z,28.87
2024-01-24T12:20:58.100Z,33.03
2024-01-24T12:23:03.520Z,34.97
2024-01-24T12:25:08.588Z,31.50
2024-01-24T12:27:11.684Z,28.00
2024-01-24T12:29:13.871Z,30.87
2024-01-24T12:31:16.931Z,20.43
2024-01-24T12:33:20.134Z,42.20
2024-01-24T12:35:24.994Z,29.03
2024-01-24T12:37:27.912Z,36.00
2024-01-24T12:39:31.463Z,30.70
2024-01-24T12:41:34.576Z,32.00
2024-01-24T12:43:37.820Z,39.93
2024-01-24T12:45:41.272Z,26.37
2024-01-24T12:47:43.547Z,31.03
2024-01-24T12:49:47.059Z,38.73
2024-01-24T12:51:51.691Z,36.53
2024-01-24T12:53:54.705Z,39.67
2024-01-24T12:55:57.507Z,38.27
2024-01-24T12:58:00.276Z,31.70
2024-01-24T13:00:05.374Z,33.17
2024-01-24T13:02:10.409Z,36.47
2024-01-24T13:04:13.337Z,29.30
2024-01-24T13:06:17.758Z,24.00
2024-01-24T13:08:22.123Z,34.63
2024-01-24T13:10:27.118Z,32.70
2024-01-24T13:12:29.954Z,37.33
2024-01-24T13:14:33.751Z,26.17
2024-01-24T13:16:36.510Z,27.43
2024-01-24T13:18:38.367Z,38.73
2024-01-24T13:20:41.429Z,21.20
2024-01-24T13:22:44.252Z,25.63
2024-01-24T13:24:53.264Z,27.23
2024-01-24T13:26:58.516Z,35.00
2024-01-24T13:29:01.323Z,27.83
2024-01-24T13:31:03.525Z,27.07
2024-01-24T13:33:07.561Z,33.07
2024-01-24T13:35:10.623Z,28.47
2024-01-24T13:37:13.937Z,31.23
2024-01-24T13:39:17.147Z,34.83
2024-01-24T13:41:24.099Z,32.80
2024-01-24T13:43:27.770Z,29.07
2024-01-24T13:45:30.627Z,32.20
2024-01-24T13:47:33.444Z,30.03
2024-01-24T13:49:38.772Z,27.90
2024-01-24T13:51:43.419Z,31.13
2024-01-24T13:53:47.870Z,37.97
2024-01-24T13:55:50.686Z,28.13
2024-01-24T13:58:00.309Z,26.10
2024-01-24T14:00:04.016Z,26.03
2024-01-24T14:02:07.985Z,46.60
2024-01-24T14:04:10.982Z,36.60
2024-01-24T14:06:13.976Z,32.57
2024-01-24T14:08:17.189Z,31.80
2024-01-24T14:10:20.038Z,35.13
2024-01-24T14:12:23.169Z,36.67
2024-01-24T14:14:29.176Z,30.87
2024-01-24T14:16:34.981Z,36.47
2024-01-24T14:18:37.976Z,36.00
2024-01-24T14:20:39.847Z,27.33
2024-01-24T14:22:42.665Z,31.17
2024-01-24T14:24:44.765Z,28.93
2024-01-24T14:26:49.067Z,24.57
2024-01-24T14:28:52.441Z,36.90
2024-01-24T14:30:56.554Z,30.67
2024-01-24T14:32:58.458Z,32.83
2024-01-24T14:35:01.359Z,35.50
2024-01-24T14:37:10.364Z,28.10
2024-01-24T14:39:14.470Z,33.17
2024-01-24T14:41:17.265Z,30.77
2024-01-24T14:43:20.186Z,42.83
2024-01-24T14:45:22.972Z,35.00
2024-01-24T14:47:26.147Z,44.43
2024-01-24T14:49:29.028Z,31.25
2024-01-24T14:51:32.094Z,34.03
2024-01-24T14:53:34.854Z,28.13
2024-01-24T14:55:37.628Z,27.93
2024-01-24T14:57:40.423Z,23.60
2024-01-24T14:59:43.354Z,41.07
2024-01-24T15:01:46.244Z,28.43
2024-01-24T15:03:50.976Z,19.53
2024-01-24T15:05:53.848Z,27.57
2024-01-24T15:07:57.081Z,31.97
2024-01-24T15:09:59.928Z,35.23
2024-01-24T15:12:02.922Z,29.33
2024-01-24T15:14:05.744Z,29.23
2024-01-24T15:16:08.553Z,40.37
2024-01-24T15:18:11.535Z,32.60
2024-01-24T15:20:14.874Z,28.93
2024-01-24T15:22:20.473Z,15.87
2024-01-24T15:24:23.539Z,29.30
2024-01-24T15:26:26.336Z,26.33
2024-01-24T15:28:30.294Z,39.77
2024-01-24T15:30:33.175Z,29.03
2024-01-24T15:32:36.857Z,30.60
2024-01-24T15:34:39.716Z,42.20
2024-01-24T15:36:44.147Z,32.87
2024-01-24T15:38:51.384Z,27.87
2024-01-24T15:40:54.631Z,34.13
2024-01-24T15:43:00.854Z,36.60
2024-01-24T15:45:03.250Z,30.07
2024-01-24T15:47:06.469Z,20.80
2024-01-24T15:49:09.302Z,44.97
2024-01-24T15:51:12.150Z,32.27
2024-01-24T15:53:16.891Z,24.57
2024-01-24T15:55:19.721Z,34.30
2024-01-24T15:57:22.615Z,36.47
2024-01-24T15:59:25.478Z,28.93
2024-01-24T16:01:28.903Z,29.80
2024-01-24T16:03:33.638Z,31.23
2024-01-24T16:05:42.276Z,27.07
2024-01-24T16:07:44.113Z,45.43
2024-01-24T16:09:48.680Z,28.47
2024-01-24T16:11:51.729Z,39.67
2024-01-24T16:13:54.615Z,29.17
2024-01-24T16:15:56.618Z,36.63
2024-01-24T16:17:59.466Z,37.03
2024-01-24T16:20:02.394Z,30.23
2024-01-24T16:22:05.768Z,35.90
2024-01-24T16:24:09.066Z,32.33
2024-01-24T16:26:13.160Z,23.37
2024-01-24T16:28:16.271Z,36.27
2024-01-24T16:30:20.517Z,30.50
2024-01-24T16:32:23.352Z,29.07
2024-01-24T16:34:26.219Z,37.47
2024-01-24T16:36:29.068Z,32.77
2024-01-24T16:38:32.913Z,36.37
2024-01-24T16:40:35.677Z,25.87
2024-01-24T16:42:39.807Z,32.70
2024-01-24T16:44:42.655Z,24.37
2024-01-24T16:46:45.854Z,31.23
2024-01-24T16:48:48.767Z,35.17
2024-01-24T16:50:51.604Z,42.87
2024-01-24T16:52:54.301Z,51.03
2024-01-24T16:54:56.177Z,42.17
2024-01-24T16:56:58.905Z,38.47
2024-01-24T16:59:03.231Z,32.77
2024-01-24T17:01:06.066Z,48.10
2024-01-24T17:03:08.824Z,31.93
2024-01-24T17:05:11.982Z,32.73
2024-01-24T17:07:14.751Z,34.10
2024-01-24T17:09:18.606Z,36.73
2024-01-24T17:11:21.309Z,34.30
2024-01-24T17:13:23.058Z,19.07
2024-01-24T17:15:27.175Z,29.57
2024-01-24T17:17:28.989Z,34.40
2024-01-24T17:19:31.846Z,29.60
2024-01-24T17:21:34.613Z,40.77
2024-01-24T17:23:37.320Z,38.23
2024-01-24T17:25:40.058Z,35.03
2024-01-24T17:27:42.864Z,45.57
2024-01-24T17:29:46.854Z,46.40
2024-01-24T17:31:50.150Z,38.67
2024-01-24T17:33:53.828Z,32.23
2024-01-24T17:35:56.644Z,22.57
2024-01-24T17:37:59.366Z,31.93
2024-01-24T17:40:02.613Z,30.83
2024-01-24T17:42:05.790Z,28.23
2024-01-24T17:44:08.511Z,33.43
2024-01-24T17:46:11.339Z,25.23
2024-01-24T17:48:15.580Z,40.57
2024-01-24T17:50:18.646Z,46.13
2024-01-24T17:52:20.389Z,33.30
2024-01-24T17:54:23.408Z,33.90
2024-01-24T17:56:25.253Z,36.87
2024-01-24T17:58:28.047Z,30.23
2024-01-24T18:00:30.828Z,34.60
2024-01-24T18:02:36.569Z,30.00
2024-01-24T18:04:39.708Z,31.30
2024-01-24T18:06:42.854Z,43.93
2024-01-24T18:08:44.834Z,30.50
2024-01-24T18:10:47.571Z,40.90
2024-01-24T18:12:50.287Z,28.17
2024-01-24T18:14:53.504Z,30.67
2024-01-24T18:16:56.180Z,31.47
2024-01-24T18:18:58.245Z,24.90
2024-01-24T18:21:02.401Z,47.70
2024-01-24T18:23:05.754Z,23.63
2024-01-24T18:25:09.233Z,41.73
2024-01-24T18:27:11.962Z,26.40
2024-01-24T18:29:16.767Z,32.53
2024-01-24T18:31:20.228Z,43.20
2024-01-24T18:33:23.475Z,33.83
2024-01-24T18:35:25.283Z,33.13
2024-01-24T18:37:29.679Z,46.20
2024-01-24T18:39:32.428Z,29.30
2024-01-24T18:41:35.188Z,49.93
2024-01-24T18:43:37.987Z,48.30
2024-01-24T18:45:40.832Z,48.27
2024-01-24T18:47:43.782Z,47.73
2024-01-24T18:49:46.770Z,36.97
2024-01-24T18:51:50.882Z,32.70
2024-01-24T18:53:55.541Z,29.93
2024-01-24T18:55:58.218Z,40.50
2024-01-24T18:58:01.217Z,36.20
2024-01-24T19:00:03.440Z,29.63
2024-01-24T19:02:06.380Z,33.40
2024-01-24T19:04:09.441Z,42.83
2024-01-24T19:06:12.538Z,34.20
2024-01-24T19:08:15.376Z,37.57
2024-01-24T19:10:19.505Z,44.60
2024-01-24T19:12:21.350Z,30.13
2024-01-24T19:14:24.161Z,26.90
2024-01-24T19:16:26.668Z,26.70
2024-01-24T19:18:30.310Z,26.87
2024-01-24T19:20:33.303Z,35.67
2024-01-24T19:22:36.111Z,37.63
2024-01-24T19:24:39.272Z,32.30
2024-01-24T19:26:44.198Z,35.77
2024-01-24T19:28:47.210Z,35.00
2024-01-24T19:30:50.246Z,28.47
2024-01-24T19:32:53.217Z,27.97
2024-01-24T19:34:57.010Z,29.40
2024-01-24T19:37:00.107Z,33.13
2024-01-24T19:39:02.901Z,32.33
2024-01-24T19:41:05.852Z,38.63
2024-01-24T19:43:09.187Z,31.47
2024-01-24T19:45:12.348Z,35.27
2024-01-24T19:47:15.330Z,28.67
2024-01-24T19:49:18.129Z,41.27
2024-01-24T19:51:21.866Z,35.07
2024-01-24T19:53:29.920Z,27.50
2024-01-24T19:55:36.343Z,54.87
2024-01-24T19:57:39.102Z,28.73
2024-01-24T19:59:43.408Z,28.10
2024-01-24T20:01:46.729Z,36.17
2024-01-24T20:03:49.489Z,41.67
2024-01-24T20:05:53.914Z,32.10
2024-01-24T20:07:56.772Z,34.03
2024-01-24T20:10:00.692Z,33.33
2024-01-24T20:12:04.270Z,37.50
2024-01-24T20:14:07.066Z,32.43
2024-01-24T20:16:12.063Z,24.33
2024-01-24T20:18:18.867Z,43.10
2024-01-24T20:20:24.177Z,40.13
2024-01-24T20:22:27.722Z,26.67
2024-01-24T20:24:30.550Z,34.23
2024-01-24T20:26:34.226Z,39.90
2024-01-24T20:28:37.706Z,36.63
2024-01-24T20:30:40.845Z,19.80
2024-01-24T20:32:52.996Z,27.47
2024-01-24T20:35:04.024Z,32.07
2024-01-24T20:37:07.501Z,36.40
2024-01-24T20:39:12.800Z,34.53
2024-01-24T20:41:15.573Z,31.33
2024-01-24T20:43:18.349Z,22.13
2024-01-24T20:45:21.139Z,43.30
2024-01-24T20:47:24.496Z,27.67
2024-01-24T20:49:28.750Z,37.23
2024-01-24T20:51:30.605Z,33.40
2024-01-24T20:53:33.769Z,29.80
2024-01-24T20:55:36.515Z,35.00
2024-01-24T20:57:39.332Z,35.03
2024-01-24T20:59:42.207Z,29.43
2024-01-24T21:01:45.097Z,25.13
2024-01-24T21:03:48.924Z,32.73
2024-01-24T21:05:54.477Z,29.47
2024-01-24T21:07:58.956Z,42.57
2024-01-24T21:10:01.787Z,36.37
2024-01-24T21:12:07.921Z,31.27
2024-01-24T21:14:10.731Z,31.93
2024-01-24T21:16:13.551Z,27.23
2024-01-24T21:18:17.427Z,28.30
2024-01-24T21:20:20.302Z,32.57
2024-01-24T21:22:24.877Z,41.57
2024-01-24T21:24:27.683Z,43.60
2024-01-24T21:26:30.444Z,44.03
2024-01-24T21:28:33.203Z,44.40
2024-01-24T21:30:36.059Z,34.90
2024-01-24T21:32:37.967Z,39.37
2024-01-24T21:34:41.464Z,46.93
2024-01-24T21:36:48.095Z,32.13
2024-01-24T21:38:53.934Z,32.83
2024-01-24T21:40:56.671Z,43.20
2024-01-24T21:42:58.705Z,32.20
2024-01-24T21:45:01.532Z,29.10
2024-01-24T21:47:05.378Z,43.00
2024-01-24T21:49:08.274Z,39.17
2024-01-24T21:51:11.104Z,37.53
2024-01-24T21:53:13.871Z,45.60
2024-01-24T21:55:18.040Z,37.90
2024-01-24T21:57:20.806Z,34.30
2024-01-24T21:59:23.539Z,26.80
2024-01-24T22:01:26.399Z,25.50
2024-01-24T22:03:29.228Z,42.90
2024-01-24T22:05:31.027Z,26.60
2024-01-24T22:07:33.901Z,41.17
2024-01-24T22:09:35.739Z,40.23
2024-01-24T22:11:40.030Z,29.33
2024-01-24T22:13:42.778Z,40.77
2024-01-24T22:15:45.691Z,45.93
2024-01-24T22:17:48.489Z,39.70
2024-01-24T22:19:51.334Z,36.30
2024-01-24T22:21:54.135Z,33.43
2024-01-24T22:23:57.354Z,44.07
2024-01-24T22:25:59.116Z,34.63
2024-01-24T22:28:03.209Z,30.23
2024-01-24T22:30:07.310Z,40.30
2024-01-24T22:32:10.034Z,31.30
2024-01-24T22:34:12.953Z,33.37
2024-01-24T22:36:16.017Z,38.83
2024-01-24T22:38:18.752Z,25.20
2024-01-24T22:40:21.960Z,34.30
2024-01-24T22:42:23.952Z,36.67
2024-01-24T22:44:28.027Z,24.67
2024-01-24T22:46:30.810Z,25.47
2024-01-24T22:48:33.720Z,57.57
2024-01-24T22:50:36.777Z,26.90
2024-01-24T22:52:39.833Z,38.90
2024-01-24T22:54:42.806Z,33.77
2024-01-24T22:56:45.591Z,35.70
2024-01-24T22:58:48.358Z,28.87
2024-01-24T23:00:53.247Z,36.87
2024-01-24T23:02:56.079Z,36.13
2024-01-24T23:04:57.988Z,34.70
2024-01-24T23:07:01.093Z,40.17
2024-01-24T23:09:03.957Z,39.97
2024-01-24T23:11:06.713Z,40.07
2024-01-24T23:13:09.601Z,21.17
2024-01-24T23:15:12.337Z,32.20
2024-01-24T23:17:16.397Z,45.50
2024-01-24T23:19:19.231Z,30.80
2024-01-24T23:21:22.020Z,34.43
2024-01-24T23:23:24.766Z,29.47
2024-01-24T23:25:26.823Z,29.13
2024-01-24T23:27:29.644Z,43.47
2024-01-24T23:29:32.382Z,29.63
2024-01-24T23:31:35.145Z,31.40
2024-01-24T23:33:38.419Z,29.13
2024-01-24T23:35:41.289Z,34.70
2024-01-24T23:37:44.213Z,43.10
2024-01-24T23:39:46.660Z,26.90
2024-01-24T23:41:49.426Z,33.43
2024-01-24T23:43:51.970Z,27.37
2024-01-24T23:45:54.747Z,37.13
2024-01-24T23:47:57.795Z,38.83
2024-01-24T23:50:01.276Z,35.93
2024-01-24T23:52:04.861Z,41.57
2024-01-24T23:54:10.011Z,36.73
2024-01-24T23:56:13.331Z,41.07
2024-01-24T23:58:16.190Z,28.83
